sensor_id;sensor_type;location;lat;lon;timestamp;temperature;humidity
65046;DHT22;54657;52.022;5.534;2023-05-09T00:01:38;17.60;83.90
65046;DHT22;54657;52.022;5.534;2023-05-09T00:04:04;17.60;83.80
65046;DHT22;54657;52.022;5.534;2023-05-09T00:06:30;17.60;83.70
65046;DHT22;54657;52.022;5.534;2023-05-09T00:08:56;17.60;83.60
65046;DHT22;54657;52.022;5.534;2023-05-09T00:11:22;17.70;83.50
65046;DHT22;54657;52.022;5.534;2023-05-09T00:13:48;17.70;83.50
65046;DHT22;54657;52.022;5.534;2023-05-09T00:16:15;17.70;83.50
65046;DHT22;54657;52.022;5.534;2023-05-09T00:18:41;17.70;83.40
65046;DHT22;54657;52.022;5.534;2023-05-09T00:21:08;17.60;83.70
65046;DHT22;54657;52.022;5.534;2023-05-09T00:23:34;17.70;83.90
65046;DHT22;54657;52.022;5.534;2023-05-09T00:26:00;17.60;84.00
65046;DHT22;54657;52.022;5.534;2023-05-09T00:28:25;17.60;84.60
65046;DHT22;54657;52.022;5.534;2023-05-09T00:30:51;17.60;84.20
65046;DHT22;54657;52.022;5.534;2023-05-09T00:33:18;17.50;84.40
65046;DHT22;54657;52.022;5.534;2023-05-09T00:35:44;17.50;84.50
65046;DHT22;54657;52.022;5.534;2023-05-09T00:38:09;17.50;84.60
65046;DHT22;54657;52.022;5.534;2023-05-09T00:40:35;17.50;84.70
65046;DHT22;54657;52.022;5.534;2023-05-09T00:43:01;17.40;84.80
65046;DHT22;54657;52.022;5.534;2023-05-09T00:45:26;17.40;84.90
65046;DHT22;54657;52.022;5.534;2023-05-09T00:47:52;17.30;85.00
65046;DHT22;54657;52.022;5.534;2023-05-09T00:50:18;17.30;85.20
65046;DHT22;54657;52.022;5.534;2023-05-09T00:52:44;17.30;85.40
65046;DHT22;54657;52.022;5.534;2023-05-09T00:55:09;17.30;85.40
65046;DHT22;54657;52.022;5.534;2023-05-09T00:57:36;17.30;85.10
65046;DHT22;54657;52.022;5.534;2023-05-09T01:00:02;17.40;85.10
65046;DHT22;54657;52.022;5.534;2023-05-09T01:02:29;17.30;85.00
65046;DHT22;54657;52.022;5.534;2023-05-09T01:04:55;17.40;85.20
65046;DHT22;54657;52.022;5.534;2023-05-09T01:21:16;17.40;86.10
65046;DHT22;54657;52.022;5.534;2023-05-09T01:32:14;17.50;85.70
65046;DHT22;54657;52.022;5.534;2023-05-09T01:34:43;17.40;86.40
65046;DHT22;54657;52.022;5.534;2023-05-09T01:37:10;17.30;85.30
65046;DHT22;54657;52.022;5.534;2023-05-09T01:39:38;17.30;85.50
65046;DHT22;54657;52.022;5.534;2023-05-09T01:42:08;17.30;85.50
65046;DHT22;54657;52.022;5.534;2023-05-09T01:44:41;17.30;85.60
65046;DHT22;54657;52.022;5.534;2023-05-09T01:47:08;17.30;85.70
65046;DHT22;54657;52.022;5.534;2023-05-09T01:49:35;17.30;85.80
65046;DHT22;54657;52.022;5.534;2023-05-09T01:52:07;17.20;85.80
65046;DHT22;54657;52.022;5.534;2023-05-09T01:54:33;17.30;85.80
65046;DHT22;54657;52.022;5.534;2023-05-09T01:57:02;17.30;85.60
65046;DHT22;54657;52.022;5.534;2023-05-09T01:59:28;17.30;85.60
65046;DHT22;54657;52.022;5.534;2023-05-09T02:01:55;17.30;85.70
65046;DHT22;54657;52.022;5.534;2023-05-09T02:04:21;17.30;85.70
65046;DHT22;54657;52.022;5.534;2023-05-09T02:06:49;17.30;85.70
65046;DHT22;54657;52.022;5.534;2023-05-09T02:09:17;17.30;85.70
65046;DHT22;54657;52.022;5.534;2023-05-09T02:11:42;17.40;85.80
65046;DHT22;54657;52.022;5.534;2023-05-09T02:14:08;17.40;85.80
65046;DHT22;54657;52.022;5.534;2023-05-09T02:16:34;17.40;85.70
65046;DHT22;54657;52.022;5.534;2023-05-09T02:19:00;17.30;85.70
65046;DHT22;54657;52.022;5.534;2023-05-09T02:21:25;17.40;85.60
65046;DHT22;54657;52.022;5.534;2023-05-09T02:23:51;17.30;85.50
65046;DHT22;54657;52.022;5.534;2023-05-09T02:26:17;17.30;85.80
65046;DHT22;54657;52.022;5.534;2023-05-09T02:28:43;17.30;85.80
65046;DHT22;54657;52.022;5.534;2023-05-09T02:31:10;17.30;85.90
65046;DHT22;54657;52.022;5.534;2023-05-09T02:33:38;17.30;85.80
65046;DHT22;54657;52.022;5.534;2023-05-09T02:36:04;17.30;85.70
65046;DHT22;54657;52.022;5.534;2023-05-09T02:38:30;17.30;85.70
65046;DHT22;54657;52.022;5.534;2023-05-09T02:40:56;17.30;85.70
65046;DHT22;54657;52.022;5.534;2023-05-09T02:43:22;17.40;85.90
65046;DHT22;54657;52.022;5.534;2023-05-09T02:45:47;17.30;85.90
65046;DHT22;54657;52.022;5.534;2023-05-09T02:48:13;17.30;86.10
65046;DHT22;54657;52.022;5.534;2023-05-09T02:50:39;17.30;86.20
65046;DHT22;54657;52.022;5.534;2023-05-09T02:53:07;17.30;86.20
65046;DHT22;54657;52.022;5.534;2023-05-09T02:55:32;17.30;86.20
65046;DHT22;54657;52.022;5.534;2023-05-09T02:57:58;17.20;86.20
65046;DHT22;54657;52.022;5.534;2023-05-09T03:00:23;17.20;86.50
65046;DHT22;54657;52.022;5.534;2023-05-09T03:02:50;17.20;86.60
65046;DHT22;54657;52.022;5.534;2023-05-09T03:05:16;17.20;87.00
65046;DHT22;54657;52.022;5.534;2023-05-09T03:07:42;17.20;86.40
65046;DHT22;54657;52.022;5.534;2023-05-09T03:10:09;17.20;86.40
65046;DHT22;54657;52.022;5.534;2023-05-09T03:12:37;17.10;86.50
65046;DHT22;54657;52.022;5.534;2023-05-09T03:15:06;17.20;87.10
65046;DHT22;54657;52.022;5.534;2023-05-09T03:17:32;17.10;86.50
65046;DHT22;54657;52.022;5.534;2023-05-09T03:19:58;17.10;86.70
65046;DHT22;54657;52.022;5.534;2023-05-09T03:22:23;17.10;86.60
65046;DHT22;54657;52.022;5.534;2023-05-09T03:24:49;17.10;86.80
65046;DHT22;54657;52.022;5.534;2023-05-09T03:27:14;17.00;86.70
65046;DHT22;54657;52.022;5.534;2023-05-09T03:29:40;17.00;86.80
65046;DHT22;54657;52.022;5.534;2023-05-09T03:32:05;17.00;86.90
65046;DHT22;54657;52.022;5.534;2023-05-09T03:34:31;16.90;86.90
65046;DHT22;54657;52.022;5.534;2023-05-09T03:36:57;17.00;86.90
65046;DHT22;54657;52.022;5.534;2023-05-09T03:39:22;16.90;86.80
65046;DHT22;54657;52.022;5.534;2023-05-09T03:41:48;16.90;86.80
65046;DHT22;54657;52.022;5.534;2023-05-09T03:44:14;17.00;86.70
65046;DHT22;54657;52.022;5.534;2023-05-09T03:46:39;16.90;86.70
65046;DHT22;54657;52.022;5.534;2023-05-09T03:49:05;16.90;86.80
65046;DHT22;54657;52.022;5.534;2023-05-09T03:51:30;16.90;86.70
65046;DHT22;54657;52.022;5.534;2023-05-09T03:53:57;16.90;86.80
65046;DHT22;54657;52.022;5.534;2023-05-09T03:56:22;16.80;87.00
65046;DHT22;54657;52.022;5.534;2023-05-09T03:58:48;16.80;87.10
65046;DHT22;54657;52.022;5.534;2023-05-09T04:01:14;16.80;87.20
65046;DHT22;54657;52.022;5.534;2023-05-09T04:03:40;16.80;87.30
65046;DHT22;54657;52.022;5.534;2023-05-09T04:06:06;16.80;87.30
65046;DHT22;54657;52.022;5.534;2023-05-09T04:08:32;16.90;87.20
65046;DHT22;54657;52.022;5.534;2023-05-09T04:10:58;16.90;86.90
65046;DHT22;54657;52.022;5.534;2023-05-09T04:13:23;16.90;86.90
65046;DHT22;54657;52.022;5.534;2023-05-09T04:15:49;16.90;86.80
65046;DHT22;54657;52.022;5.534;2023-05-09T04:18:15;16.80;86.70
65046;DHT22;54657;52.022;5.534;2023-05-09T04:20:40;16.80;87.00
65046;DHT22;54657;52.022;5.534;2023-05-09T04:23:06;16.70;87.00
65046;DHT22;54657;52.022;5.534;2023-05-09T04:25:31;16.60;87.30
65046;DHT22;54657;52.022;5.534;2023-05-09T04:27:58;16.60;87.60
65046;DHT22;54657;52.022;5.534;2023-05-09T04:30:24;16.50;87.60
65046;DHT22;54657;52.022;5.534;2023-05-09T04:32:52;16.50;87.60
65046;DHT22;54657;52.022;5.534;2023-05-09T04:35:17;16.50;87.80
65046;DHT22;54657;52.022;5.534;2023-05-09T04:37:43;16.50;88.00
65046;DHT22;54657;52.022;5.534;2023-05-09T04:40:09;16.50;87.90
65046;DHT22;54657;52.022;5.534;2023-05-09T04:42:36;16.50;87.70
65046;DHT22;54657;52.022;5.534;2023-05-09T04:45:02;16.60;87.70
65046;DHT22;54657;52.022;5.534;2023-05-09T04:47:27;16.60;87.50
65046;DHT22;54657;52.022;5.534;2023-05-09T04:49:53;16.70;87.50
65046;DHT22;54657;52.022;5.534;2023-05-09T04:52:18;16.60;87.30
65046;DHT22;54657;52.022;5.534;2023-05-09T04:54:44;16.70;87.20
65046;DHT22;54657;52.022;5.534;2023-05-09T04:57:10;16.70;87.40
65046;DHT22;54657;52.022;5.534;2023-05-09T04:59:35;16.70;87.30
65046;DHT22;54657;52.022;5.534;2023-05-09T05:02:01;16.70;87.10
65046;DHT22;54657;52.022;5.534;2023-05-09T05:04:27;16.70;87.20
65046;DHT22;54657;52.022;5.534;2023-05-09T05:06:53;16.70;87.30
65046;DHT22;54657;52.022;5.534;2023-05-09T05:09:18;16.70;87.50
65046;DHT22;54657;52.022;5.534;2023-05-09T05:11:44;16.70;87.50
65046;DHT22;54657;52.022;5.534;2023-05-09T05:14:10;16.70;87.60
65046;DHT22;54657;52.022;5.534;2023-05-09T05:16:35;16.70;87.60
65046;DHT22;54657;52.022;5.534;2023-05-09T05:19:01;16.70;87.50
65046;DHT22;54657;52.022;5.534;2023-05-09T05:21:26;16.70;87.50
65046;DHT22;54657;52.022;5.534;2023-05-09T05:23:52;16.70;87.60
65046;DHT22;54657;52.022;5.534;2023-05-09T05:26:17;16.70;87.60
65046;DHT22;54657;52.022;5.534;2023-05-09T05:28:43;16.70;87.40
65046;DHT22;54657;52.022;5.534;2023-05-09T05:31:08;16.70;87.40
65046;DHT22;54657;52.022;5.534;2023-05-09T05:33:34;16.70;87.50
65046;DHT22;54657;52.022;5.534;2023-05-09T05:36:00;16.70;87.60
65046;DHT22;54657;52.022;5.534;2023-05-09T05:38:25;16.70;87.40
65046;DHT22;54657;52.022;5.534;2023-05-09T05:40:51;16.70;87.50
65046;DHT22;54657;52.022;5.534;2023-05-09T05:43:16;16.80;87.30
65046;DHT22;54657;52.022;5.534;2023-05-09T05:45:42;16.80;87.20
65046;DHT22;54657;52.022;5.534;2023-05-09T05:48:07;16.80;87.20
65046;DHT22;54657;52.022;5.534;2023-05-09T05:50:33;16.80;87.00
65046;DHT22;54657;52.022;5.534;2023-05-09T05:52:58;16.90;87.20
65046;DHT22;54657;52.022;5.534;2023-05-09T05:55:24;16.90;87.00
65046;DHT22;54657;52.022;5.534;2023-05-09T05:57:49;16.90;86.90
65046;DHT22;54657;52.022;5.534;2023-05-09T06:00:15;16.90;86.80
65046;DHT22;54657;52.022;5.534;2023-05-09T06:02:42;17.00;86.90
65046;DHT22;54657;52.022;5.534;2023-05-09T06:05:09;17.00;86.80
65046;DHT22;54657;52.022;5.534;2023-05-09T06:07:35;17.00;86.60
65046;DHT22;54657;52.022;5.534;2023-05-09T06:10:00;17.10;86.40
65046;DHT22;54657;52.022;5.534;2023-05-09T06:12:26;17.10;86.50
65046;DHT22;54657;52.022;5.534;2023-05-09T06:14:51;17.20;86.30
65046;DHT22;54657;52.022;5.534;2023-05-09T06:17:17;17.30;86.10
65046;DHT22;54657;52.022;5.534;2023-05-09T06:19:42;17.30;86.10
65046;DHT22;54657;52.022;5.534;2023-05-09T06:22:08;17.30;85.90
65046;DHT22;54657;52.022;5.534;2023-05-09T06:24:33;17.40;86.40
65046;DHT22;54657;52.022;5.534;2023-05-09T06:26:59;17.40;85.80
65046;DHT22;54657;52.022;5.534;2023-05-09T06:29:25;17.40;85.90
65046;DHT22;54657;52.022;5.534;2023-05-09T06:31:50;17.50;85.60
65046;DHT22;54657;52.022;5.534;2023-05-09T06:34:16;17.40;85.50
65046;DHT22;54657;52.022;5.534;2023-05-09T06:36:41;17.40;85.50
65046;DHT22;54657;52.022;5.534;2023-05-09T06:39:07;17.50;85.60
65046;DHT22;54657;52.022;5.534;2023-05-09T06:41:32;17.50;85.50
65046;DHT22;54657;52.022;5.534;2023-05-09T06:43:58;17.40;85.60
65046;DHT22;54657;52.022;5.534;2023-05-09T06:46:23;17.50;85.50
65046;DHT22;54657;52.022;5.534;2023-05-09T06:48:49;17.40;85.40
65046;DHT22;54657;52.022;5.534;2023-05-09T06:51:15;17.40;85.60
65046;DHT22;54657;52.022;5.534;2023-05-09T06:53:40;17.40;85.60
65046;DHT22;54657;52.022;5.534;2023-05-09T06:56:06;17.40;85.60
65046;DHT22;54657;52.022;5.534;2023-05-09T06:58:31;17.40;85.60
65046;DHT22;54657;52.022;5.534;2023-05-09T07:00:57;17.40;85.80
65046;DHT22;54657;52.022;5.534;2023-05-09T07:03:23;17.40;85.90
65046;DHT22;54657;52.022;5.534;2023-05-09T07:05:48;17.40;85.80
65046;DHT22;54657;52.022;5.534;2023-05-09T07:08:14;17.50;85.80
65046;DHT22;54657;52.022;5.534;2023-05-09T07:10:40;17.40;85.70
65046;DHT22;54657;52.022;5.534;2023-05-09T07:13:05;17.50;85.80
65046;DHT22;54657;52.022;5.534;2023-05-09T07:15:31;17.50;85.60
65046;DHT22;54657;52.022;5.534;2023-05-09T07:17:56;17.50;85.70
65046;DHT22;54657;52.022;5.534;2023-05-09T07:20:22;17.50;85.80
65046;DHT22;54657;52.022;5.534;2023-05-09T07:22:47;17.50;85.80
65046;DHT22;54657;52.022;5.534;2023-05-09T07:25:13;17.50;85.80
65046;DHT22;54657;52.022;5.534;2023-05-09T07:27:39;17.60;85.70
65046;DHT22;54657;52.022;5.534;2023-05-09T07:30:05;17.60;85.60
65046;DHT22;54657;52.022;5.534;2023-05-09T07:32:31;17.60;85.60
65046;DHT22;54657;52.022;5.534;2023-05-09T07:34:56;17.60;85.50
65046;DHT22;54657;52.022;5.534;2023-05-09T07:37:22;17.60;85.40
65046;DHT22;54657;52.022;5.534;2023-05-09T07:39:47;17.70;85.50
65046;DHT22;54657;52.022;5.534;2023-05-09T07:42:13;17.70;85.60
65046;DHT22;54657;52.022;5.534;2023-05-09T07:44:39;17.70;85.90
65046;DHT22;54657;52.022;5.534;2023-05-09T07:47:04;17.70;86.20
65046;DHT22;54657;52.022;5.534;2023-05-09T07:49:30;17.70;86.60
65046;DHT22;54657;52.022;5.534;2023-05-09T07:51:56;17.70;86.60
65046;DHT22;54657;52.022;5.534;2023-05-09T07:54:22;17.70;86.80
65046;DHT22;54657;52.022;5.534;2023-05-09T07:56:48;17.70;86.90
65046;DHT22;54657;52.022;5.534;2023-05-09T07:59:14;17.60;87.10
65046;DHT22;54657;52.022;5.534;2023-05-09T08:01:40;17.60;87.30
65046;DHT22;54657;52.022;5.534;2023-05-09T08:04:05;17.50;87.90
65046;DHT22;54657;52.022;5.534;2023-05-09T08:06:33;17.50;88.30
65046;DHT22;54657;52.022;5.534;2023-05-09T08:08:59;17.50;88.20
65046;DHT22;54657;52.022;5.534;2023-05-09T08:11:25;17.40;88.30
65046;DHT22;54657;52.022;5.534;2023-05-09T08:13:50;17.40;88.80
65046;DHT22;54657;52.022;5.534;2023-05-09T08:16:16;17.40;88.70
65046;DHT22;54657;52.022;5.534;2023-05-09T08:18:42;17.40;88.80
65046;DHT22;54657;52.022;5.534;2023-05-09T08:21:08;17.40;89.30
65046;DHT22;54657;52.022;5.534;2023-05-09T08:23:33;17.40;89.20
65046;DHT22;54657;52.022;5.534;2023-05-09T08:25:59;17.40;89.20
65046;DHT22;54657;52.022;5.534;2023-05-09T08:28:25;17.40;89.10
65046;DHT22;54657;52.022;5.534;2023-05-09T08:30:53;17.40;89.20
65046;DHT22;54657;52.022;5.534;2023-05-09T08:33:19;17.40;89.40
65046;DHT22;54657;52.022;5.534;2023-05-09T08:35:48;17.40;89.10
65046;DHT22;54657;52.022;5.534;2023-05-09T08:38:14;17.50;89.50
65046;DHT22;54657;52.022;5.534;2023-05-09T08:40:40;17.40;89.40
65046;DHT22;54657;52.022;5.534;2023-05-09T08:43:06;17.40;89.60
65046;DHT22;54657;52.022;5.534;2023-05-09T08:45:34;17.30;90.10
65046;DHT22;54657;52.022;5.534;2023-05-09T08:48:04;17.20;90.40
65046;DHT22;54657;52.022;5.534;2023-05-09T08:50:31;17.20;90.30
65046;DHT22;54657;52.022;5.534;2023-05-09T08:52:56;17.30;90.30
65046;DHT22;54657;52.022;5.534;2023-05-09T08:55:22;17.30;90.10
65046;DHT22;54657;52.022;5.534;2023-05-09T08:57:48;17.30;90.10
65046;DHT22;54657;52.022;5.534;2023-05-09T09:00:14;17.30;90.40
65046;DHT22;54657;52.022;5.534;2023-05-09T09:02:41;17.30;90.40
65046;DHT22;54657;52.022;5.534;2023-05-09T09:05:08;17.30;90.10
65046;DHT22;54657;52.022;5.534;2023-05-09T09:07:35;17.40;90.30
65046;DHT22;54657;52.022;5.534;2023-05-09T09:10:02;17.40;90.20
65046;DHT22;54657;52.022;5.534;2023-05-09T09:12:28;17.30;90.40
65046;DHT22;54657;52.022;5.534;2023-05-09T09:14:55;17.30;90.40
65046;DHT22;54657;52.022;5.534;2023-05-09T09:17:25;17.40;90.60
65046;DHT22;54657;52.022;5.534;2023-05-09T09:19:55;17.50;90.30
65046;DHT22;54657;52.022;5.534;2023-05-09T09:22:23;17.50;90.30
65046;DHT22;54657;52.022;5.534;2023-05-09T09:24:49;17.60;90.40
65046;DHT22;54657;52.022;5.534;2023-05-09T09:27:15;17.50;90.40
65046;DHT22;54657;52.022;5.534;2023-05-09T09:29:41;17.50;90.20
65046;DHT22;54657;52.022;5.534;2023-05-09T09:32:06;17.60;90.40
65046;DHT22;54657;52.022;5.534;2023-05-09T09:34:32;17.60;90.30
65046;DHT22;54657;52.022;5.534;2023-05-09T09:36:58;17.60;90.40
65046;DHT22;54657;52.022;5.534;2023-05-09T09:39:23;17.60;90.50
65046;DHT22;54657;52.022;5.534;2023-05-09T09:41:49;17.70;90.40
65046;DHT22;54657;52.022;5.534;2023-05-09T09:44:17;17.60;90.30
65046;DHT22;54657;52.022;5.534;2023-05-09T09:46:52;17.60;90.50
65046;DHT22;54657;52.022;5.534;2023-05-09T09:49:21;17.60;90.30
65046;DHT22;54657;52.022;5.534;2023-05-09T09:51:54;17.60;90.30
65046;DHT22;54657;52.022;5.534;2023-05-09T09:54:20;17.60;90.40
65046;DHT22;54657;52.022;5.534;2023-05-09T09:56:48;17.50;90.50
65046;DHT22;54657;52.022;5.534;2023-05-09T09:59:18;17.40;90.70
65046;DHT22;54657;52.022;5.534;2023-05-09T10:01:57;17.50;90.70
65046;DHT22;54657;52.022;5.534;2023-05-09T10:04:23;17.50;91.20
65046;DHT22;54657;52.022;5.534;2023-05-09T10:06:56;17.50;90.60
65046;DHT22;54657;52.022;5.534;2023-05-09T10:09:26;17.60;90.70
65046;DHT22;54657;52.022;5.534;2023-05-09T10:11:53;17.50;91.50
65046;DHT22;54657;52.022;5.534;2023-05-09T10:14:22;17.50;90.70
65046;DHT22;54657;52.022;5.534;2023-05-09T10:16:49;17.50;90.60
65046;DHT22;54657;52.022;5.534;2023-05-09T10:19:17;17.50;90.90
65046;DHT22;54657;52.022;5.534;2023-05-09T10:21:50;17.40;90.90
65046;DHT22;54657;52.022;5.534;2023-05-09T10:24:17;17.40;90.90
65046;DHT22;54657;52.022;5.534;2023-05-09T10:26:48;17.40;92.10
65046;DHT22;54657;52.022;5.534;2023-05-09T10:29:15;17.30;91.30
65046;DHT22;54657;52.022;5.534;2023-05-09T10:31:47;17.30;91.00
65046;DHT22;54657;52.022;5.534;2023-05-09T10:34:17;17.30;91.20
65046;DHT22;54657;52.022;5.534;2023-05-09T10:36:45;17.30;91.10
65046;DHT22;54657;52.022;5.534;2023-05-09T10:39:11;17.30;91.00
65046;DHT22;54657;52.022;5.534;2023-05-09T10:41:38;17.30;90.90
65046;DHT22;54657;52.022;5.534;2023-05-09T10:44:04;17.30;91.10
65046;DHT22;54657;52.022;5.534;2023-05-09T10:46:30;17.30;90.90
65046;DHT22;54657;52.022;5.534;2023-05-09T10:48:57;17.20;91.10
65046;DHT22;54657;52.022;5.534;2023-05-09T10:51:23;17.20;91.10
65046;DHT22;54657;52.022;5.534;2023-05-09T10:53:49;17.20;91.10
65046;DHT22;54657;52.022;5.534;2023-05-09T10:56:32;17.20;91.00
65046;DHT22;54657;52.022;5.534;2023-05-09T10:58:59;17.20;91.10
65046;DHT22;54657;52.022;5.534;2023-05-09T11:01:35;17.20;91.20
65046;DHT22;54657;52.022;5.534;2023-05-09T11:04:10;17.20;91.90
65046;DHT22;54657;52.022;5.534;2023-05-09T11:06:48;17.20;91.60
65046;DHT22;54657;52.022;5.534;2023-05-09T11:14:45;17.20;91.30
65046;DHT22;54657;52.022;5.534;2023-05-09T11:24:44;17.10;91.10
65046;DHT22;54657;52.022;5.534;2023-05-09T11:27:22;17.10;91.30
65046;DHT22;54657;52.022;5.534;2023-05-09T11:29:53;17.20;91.50
65046;DHT22;54657;52.022;5.534;2023-05-09T11:32:20;17.10;91.30
65046;DHT22;54657;52.022;5.534;2023-05-09T11:34:47;17.10;91.10
65046;DHT22;54657;52.022;5.534;2023-05-09T11:37:16;17.10;91.10
65046;DHT22;54657;52.022;5.534;2023-05-09T11:39:59;17.00;91.40
65046;DHT22;54657;52.022;5.534;2023-05-09T11:42:27;17.10;91.70
65046;DHT22;54657;52.022;5.534;2023-05-09T11:44:53;17.00;91.40
65046;DHT22;54657;52.022;5.534;2023-05-09T11:47:20;17.00;91.40
65046;DHT22;54657;52.022;5.534;2023-05-09T11:49:47;17.10;91.40
65046;DHT22;54657;52.022;5.534;2023-05-09T11:52:13;17.00;91.40
65046;DHT22;54657;52.022;5.534;2023-05-09T11:54:39;17.10;91.40
65046;DHT22;54657;52.022;5.534;2023-05-09T11:57:05;17.20;91.40
65046;DHT22;54657;52.022;5.534;2023-05-09T11:59:35;17.10;91.40
65046;DHT22;54657;52.022;5.534;2023-05-09T12:02:05;17.00;91.80
65046;DHT22;54657;52.022;5.534;2023-05-09T12:04:31;17.10;91.80
65046;DHT22;54657;52.022;5.534;2023-05-09T12:07:01;17.10;91.50
65046;DHT22;54657;52.022;5.534;2023-05-09T12:09:30;17.20;91.80
65046;DHT22;54657;52.022;5.534;2023-05-09T12:12:00;17.10;91.60
65046;DHT22;54657;52.022;5.534;2023-05-09T12:14:30;17.10;91.50
65046;DHT22;54657;52.022;5.534;2023-05-09T12:16:55;17.10;91.60
65046;DHT22;54657;52.022;5.534;2023-05-09T12:19:25;17.10;91.60
65046;DHT22;54657;52.022;5.534;2023-05-09T12:21:58;17.10;91.90
65046;DHT22;54657;52.022;5.534;2023-05-09T12:24:28;17.10;91.90
65046;DHT22;54657;52.022;5.534;2023-05-09T12:26:58;17.10;91.90
65046;DHT22;54657;52.022;5.534;2023-05-09T12:29:24;17.10;92.20
65046;DHT22;54657;52.022;5.534;2023-05-09T12:31:52;17.10;91.90
65046;DHT22;54657;52.022;5.534;2023-05-09T12:34:18;17.10;92.20
65046;DHT22;54657;52.022;5.534;2023-05-09T12:36:44;17.10;92.00
65046;DHT22;54657;52.022;5.534;2023-05-09T12:39:17;17.20;92.20
65046;DHT22;54657;52.022;5.534;2023-05-09T12:41:47;17.20;92.10
65046;DHT22;54657;52.022;5.534;2023-05-09T12:47:01;17.20;92.20
65046;DHT22;54657;52.022;5.534;2023-05-09T12:49:28;17.30;92.20
65046;DHT22;54657;52.022;5.534;2023-05-09T12:51:54;17.30;92.00
65046;DHT22;54657;52.022;5.534;2023-05-09T12:54:28;17.20;92.30
65046;DHT22;54657;52.022;5.534;2023-05-09T12:56:56;17.20;92.50
65046;DHT22;54657;52.022;5.534;2023-05-09T12:59:23;17.20;92.40
65046;DHT22;54657;52.022;5.534;2023-05-09T13:02:00;17.20;92.40
65046;DHT22;54657;52.022;5.534;2023-05-09T13:04:27;17.30;92.50
65046;DHT22;54657;52.022;5.534;2023-05-09T13:06:54;17.20;92.40
65046;DHT22;54657;52.022;5.534;2023-05-09T13:09:24;17.10;92.40
65046;DHT22;54657;52.022;5.534;2023-05-09T13:11:51;17.00;92.90
65046;DHT22;54657;52.022;5.534;2023-05-09T13:14:21;17.10;92.70
65046;DHT22;54657;52.022;5.534;2023-05-09T13:16:47;17.10;92.70
65046;DHT22;54657;52.022;5.534;2023-05-09T13:19:13;17.10;92.80
65046;DHT22;54657;52.022;5.534;2023-05-09T13:21:39;17.00;92.80
65046;DHT22;54657;52.022;5.534;2023-05-09T13:24:05;17.00;92.80
65046;DHT22;54657;52.022;5.534;2023-05-09T13:26:30;17.00;92.80
65046;DHT22;54657;52.022;5.534;2023-05-09T13:28:56;17.00;92.80
65046;DHT22;54657;52.022;5.534;2023-05-09T13:31:22;17.00;92.80
65046;DHT22;54657;52.022;5.534;2023-05-09T13:33:49;17.00;92.90
65046;DHT22;54657;52.022;5.534;2023-05-09T13:36:15;17.00;92.70
65046;DHT22;54657;52.022;5.534;2023-05-09T13:38:40;17.10;92.60
65046;DHT22;54657;52.022;5.534;2023-05-09T13:41:06;17.10;92.60
65046;DHT22;54657;52.022;5.534;2023-05-09T13:43:33;17.10;92.50
65046;DHT22;54657;52.022;5.534;2023-05-09T13:45:58;17.10;92.60
65046;DHT22;54657;52.022;5.534;2023-05-09T13:48:24;17.10;92.80
65046;DHT22;54657;52.022;5.534;2023-05-09T13:50:50;17.20;92.70
65046;DHT22;54657;52.022;5.534;2023-05-09T13:53:15;17.20;92.60
65046;DHT22;54657;52.022;5.534;2023-05-09T13:55:41;17.20;92.60
65046;DHT22;54657;52.022;5.534;2023-05-09T13:58:07;17.10;92.70
65046;DHT22;54657;52.022;5.534;2023-05-09T14:00:32;17.10;92.70
65046;DHT22;54657;52.022;5.534;2023-05-09T14:02:58;17.10;92.80
65046;DHT22;54657;52.022;5.534;2023-05-09T14:05:24;17.10;92.80
65046;DHT22;54657;52.022;5.534;2023-05-09T14:07:49;17.10;92.80
65046;DHT22;54657;52.022;5.534;2023-05-09T14:10:15;17.00;92.70
65046;DHT22;54657;52.022;5.534;2023-05-09T14:12:41;17.10;93.00
65046;DHT22;54657;52.022;5.534;2023-05-09T14:15:11;17.00;93.10
65046;DHT22;54657;52.022;5.534;2023-05-09T14:17:37;17.00;93.20
65046;DHT22;54657;52.022;5.534;2023-05-09T14:20:04;17.10;93.20
65046;DHT22;54657;52.022;5.534;2023-05-09T14:22:31;17.00;93.20
65046;DHT22;54657;52.022;5.534;2023-05-09T14:24:56;17.10;93.00
65046;DHT22;54657;52.022;5.534;2023-05-09T14:27:22;17.10;93.00
65046;DHT22;54657;52.022;5.534;2023-05-09T14:29:48;17.10;92.90
65046;DHT22;54657;52.022;5.534;2023-05-09T14:32:14;17.10;93.00
65046;DHT22;54657;52.022;5.534;2023-05-09T14:34:39;17.00;92.80
65046;DHT22;54657;52.022;5.534;2023-05-09T14:37:05;17.10;92.90
65046;DHT22;54657;52.022;5.534;2023-05-09T14:39:38;17.10;93.00
65046;DHT22;54657;52.022;5.534;2023-05-09T14:42:04;17.20;93.00
65046;DHT22;54657;52.022;5.534;2023-05-09T14:44:30;17.20;92.70
65046;DHT22;54657;52.022;5.534;2023-05-09T14:46:55;17.20;92.80
65046;DHT22;54657;52.022;5.534;2023-05-09T14:49:21;17.20;92.70
65046;DHT22;54657;52.022;5.534;2023-05-09T14:51:46;17.10;92.90
65046;DHT22;54657;52.022;5.534;2023-05-09T14:54:12;17.00;93.20
65046;DHT22;54657;52.022;5.534;2023-05-09T14:56:37;17.00;93.30
65046;DHT22;54657;52.022;5.534;2023-05-09T14:59:03;16.90;93.40
65046;DHT22;54657;52.022;5.534;2023-05-09T15:01:29;17.00;93.30
65046;DHT22;54657;52.022;5.534;2023-05-09T15:03:54;17.00;93.30
65046;DHT22;54657;52.022;5.534;2023-05-09T15:06:20;17.10;93.10
65046;DHT22;54657;52.022;5.534;2023-05-09T15:08:47;17.10;93.00
65046;DHT22;54657;52.022;5.534;2023-05-09T15:11:13;17.10;93.20
65046;DHT22;54657;52.022;5.534;2023-05-09T15:13:38;17.10;93.10
65046;DHT22;54657;52.022;5.534;2023-05-09T15:16:04;17.10;93.10
65046;DHT22;54657;52.022;5.534;2023-05-09T15:18:29;17.10;93.20
65046;DHT22;54657;52.022;5.534;2023-05-09T15:20:55;17.10;93.10
65046;DHT22;54657;52.022;5.534;2023-05-09T15:23:21;17.00;93.30
65046;DHT22;54657;52.022;5.534;2023-05-09T15:25:47;17.00;93.40
65046;DHT22;54657;52.022;5.534;2023-05-09T15:28:13;17.10;93.30
65046;DHT22;54657;52.022;5.534;2023-05-09T15:30:38;17.20;93.20
65046;DHT22;54657;52.022;5.534;2023-05-09T15:33:05;17.20;93.20
65046;DHT22;54657;52.022;5.534;2023-05-09T15:35:32;17.20;93.10
65046;DHT22;54657;52.022;5.534;2023-05-09T15:37:58;17.10;93.10
65046;DHT22;54657;52.022;5.534;2023-05-09T15:40:23;17.10;93.20
65046;DHT22;54657;52.022;5.534;2023-05-09T15:42:49;17.10;93.30
65046;DHT22;54657;52.022;5.534;2023-05-09T15:45:15;17.00;93.30
65046;DHT22;54657;52.022;5.534;2023-05-09T15:47:41;17.00;93.30
65046;DHT22;54657;52.022;5.534;2023-05-09T15:50:06;16.90;93.40
65046;DHT22;54657;52.022;5.534;2023-05-09T15:52:32;16.90;93.50
65046;DHT22;54657;52.022;5.534;2023-05-09T15:54:58;16.90;93.60
65046;DHT22;54657;52.022;5.534;2023-05-09T15:57:24;16.90;93.50
65046;DHT22;54657;52.022;5.534;2023-05-09T15:59:49;16.90;93.60
65046;DHT22;54657;52.022;5.534;2023-05-09T16:02:18;16.90;93.40
65046;DHT22;54657;52.022;5.534;2023-05-09T16:04:44;16.90;93.50